sensor_id;sensor_type;location;lat;lon;timestamp;P1;durP1;ratioP1;P2;durP2;ratioP2
63346;SDS011;49472;49.880;8.650;2023-02-18T00:00:55;13.77;;;12.70;;
63346;SDS011;49472;49.880;8.650;2023-02-18T00:03:22;14.73;;;13.50;;
63346;SDS011;49472;49.880;8.650;2023-02-18T00:05:51;13.87;;;12.77;;
63346;SDS011;49472;49.880;8.650;2023-02-18T00:08:16;14.90;;;13.50;;
63346;SDS011;49472;49.880;8.650;2023-02-18T00:10:42;15.27;;;13.87;;
63346;SDS011;49472;49.880;8.650;2023-02-18T00:13:07;13.97;;;12.90;;
63346;SDS011;49472;49.880;8.650;2023-02-18T00:15:36;14.97;;;13.70;;
63346;SDS011;49472;49.880;8.650;2023-02-18T00:18:02;15.10;;;13.70;;
63346;SDS011;49472;49.880;8.650;2023-02-18T00:20:27;13.80;;;12.50;;
63346;SDS011;49472;49.880;8.650;2023-02-18T00:22:53;14.33;;;13.13;;
63346;SDS011;49472;49.880;8.650;2023-02-18T00:25:18;13.97;;;12.77;;
63346;SDS011;49472;49.880;8.650;2023-02-18T00:27:43;15.07;;;13.67;;
63346;SDS011;49472;49.880;8.650;2023-02-18T00:30:09;13.60;;;12.40;;
63346;SDS011;49472;49.880;8.650;2023-02-18T00:32:34;15.10;;;13.90;;
63346;SDS011;49472;49.880;8.650;2023-02-18T00:35:00;14.20;;;13.00;;
63346;SDS011;49472;49.880;8.650;2023-02-18T00:37:25;14.00;;;12.70;;
63346;SDS011;49472;49.880;8.650;2023-02-18T00:39:51;14.10;;;12.70;;
63346;SDS011;49472;49.880;8.650;2023-02-18T00:42:16;15.07;;;13.67;;
63346;SDS011;49472;49.880;8.650;2023-02-18T00:44:41;14.73;;;13.40;;
63346;SDS011;49472;49.880;8.650;2023-02-18T00:47:07;14.10;;;12.80;;
63346;SDS011;49472;49.880;8.650;2023-02-18T00:49:32;14.67;;;13.40;;
63346;SDS011;49472;49.880;8.650;2023-02-18T00:51:58;15.67;;;14.07;;
63346;SDS011;49472;49.880;8.650;2023-02-18T00:54:23;15.63;;;13.60;;
63346;SDS011;49472;49.880;8.650;2023-02-18T00:56:48;14.60;;;13.30;;
63346;SDS011;49472;49.880;8.650;2023-02-18T00:59:14;15.53;;;13.27;;
63346;SDS011;49472;49.880;8.650;2023-02-18T01:01:39;16.23;;;14.63;;
63346;SDS011;49472;49.880;8.650;2023-02-18T01:04:04;15.50;;;13.47;;
63346;SDS011;49472;49.880;8.650;2023-02-18T01:06:30;16.90;;;14.77;;
63346;SDS011;49472;49.880;8.650;2023-02-18T01:08:55;14.37;;;12.97;;
63346;SDS011;49472;49.880;8.650;2023-02-18T01:11:20;14.40;;;13.00;;
63346;SDS011;49472;49.880;8.650;2023-02-18T01:13:46;15.20;;;13.80;;
63346;SDS011;49472;49.880;8.650;2023-02-18T01:16:11;16.23;;;13.90;;
63346;SDS011;49472;49.880;8.650;2023-02-18T01:18:37;16.00;;;14.40;;
63346;SDS011;49472;49.880;8.650;2023-02-18T01:21:04;15.13;;;13.57;;
63346;SDS011;49472;49.880;8.650;2023-02-18T01:23:32;16.33;;;14.63;;
63346;SDS011;49472;49.880;8.650;2023-02-18T01:25:57;18.60;;;15.50;;
63346;SDS011;49472;49.880;8.650;2023-02-18T01:28:23;17.00;;;15.00;;
63346;SDS011;49472;49.880;8.650;2023-02-18T01:30:49;20.53;;;15.70;;
63346;SDS011;49472;49.880;8.650;2023-02-18T01:33:16;18.77;;;14.80;;
63346;SDS011;49472;49.880;8.650;2023-02-18T01:35:41;16.33;;;14.57;;
63346;SDS011;49472;49.880;8.650;2023-02-18T01:38:07;18.30;;;15.17;;
63346;SDS011;49472;49.880;8.650;2023-02-18T01:40:33;16.17;;;14.47;;
63346;SDS011;49472;49.880;8.650;2023-02-18T01:42:58;14.97;;;13.67;;
63346;SDS011;49472;49.880;8.650;2023-02-18T01:50:41;12.97;;;11.60;;
63346;SDS011;49472;49.880;8.650;2023-02-18T01:53:09;13.03;;;12.00;;
63346;SDS011;49472;49.880;8.650;2023-02-18T01:55:37;12.40;;;11.40;;
63346;SDS011;49472;49.880;8.650;2023-02-18T01:58:03;13.63;;;12.27;;
63346;SDS011;49472;49.880;8.650;2023-02-18T02:00:28;14.07;;;12.77;;
63346;SDS011;49472;49.880;8.650;2023-02-18T02:02:54;12.80;;;11.80;;
63346;SDS011;49472;49.880;8.650;2023-02-18T02:05:20;13.00;;;11.80;;
63346;SDS011;49472;49.880;8.650;2023-02-18T02:07:46;13.67;;;12.43;;
63346;SDS011;49472;49.880;8.650;2023-02-18T02:10:16;13.40;;;12.20;;
63346;SDS011;49472;49.880;8.650;2023-02-18T02:21:21;16.63;;;13.93;;
63346;SDS011;49472;49.880;8.650;2023-02-18T02:24:00;14.27;;;12.97;;
63346;SDS011;49472;49.880;8.650;2023-02-18T02:26:57;15.17;;;13.57;;
63346;SDS011;49472;49.880;8.650;2023-02-18T02:29:54;13.80;;;12.60;;
63346;SDS011;49472;49.880;8.650;2023-02-18T02:38:26;15.20;;;13.60;;
63346;SDS011;49472;49.880;8.650;2023-02-18T02:46:39;16.10;;;14.50;;
63346;SDS011;49472;49.880;8.650;2023-02-18T02:51:40;14.70;;;13.20;;
63346;SDS011;49472;49.880;8.650;2023-02-18T02:54:14;15.03;;;13.43;;
63346;SDS011;49472;49.880;8.650;2023-02-18T02:56:44;14.20;;;12.80;;
63346;SDS011;49472;49.880;8.650;2023-02-18T02:59:12;13.80;;;12.50;;
63346;SDS011;49472;49.880;8.650;2023-02-18T03:01:47;15.93;;;14.10;;
63346;SDS011;49472;49.880;8.650;2023-02-18T03:07:10;14.50;;;13.10;;
63346;SDS011;49472;49.880;8.650;2023-02-18T03:12:23;14.67;;;13.20;;
63346;SDS011;49472;49.880;8.650;2023-02-18T03:15:01;14.70;;;13.20;;
63346;SDS011;49472;49.880;8.650;2023-02-18T03:17:51;15.03;;;13.53;;
63346;SDS011;49472;49.880;8.650;2023-02-18T03:20:27;13.63;;;12.33;;
63346;SDS011;49472;49.880;8.650;2023-02-18T03:22:58;15.93;;;12.97;;
63346;SDS011;49472;49.880;8.650;2023-02-18T03:25:28;19.23;;;13.70;;
63346;SDS011;49472;49.880;8.650;2023-02-18T03:27:55;17.00;;;14.43;;
63346;SDS011;49472;49.880;8.650;2023-02-18T03:30:24;17.60;;;12.73;;
63346;SDS011;49472;49.880;8.650;2023-02-18T03:32:54;13.50;;;12.30;;
63346;SDS011;49472;49.880;8.650;2023-02-18T03:35:22;13.23;;;12.03;;
63346;SDS011;49472;49.880;8.650;2023-02-18T03:37:53;13.37;;;12.17;;
63346;SDS011;49472;49.880;8.650;2023-02-18T03:40:25;12.43;;;11.33;;
63346;SDS011;49472;49.880;8.650;2023-02-18T03:42:52;13.53;;;12.23;;
63346;SDS011;49472;49.880;8.650;2023-02-18T03:45:18;14.90;;;13.30;;
63346;SDS011;49472;49.880;8.650;2023-02-18T03:47:43;14.40;;;13.10;;
63346;SDS011;49472;49.880;8.650;2023-02-18T03:50:09;14.90;;;13.60;;
63346;SDS011;49472;49.880;8.650;2023-02-18T03:52:34;15.33;;;13.93;;
63346;SDS011;49472;49.880;8.650;2023-02-18T03:55:01;13.70;;;12.60;;
63346;SDS011;49472;49.880;8.650;2023-02-18T03:57:28;16.10;;;14.30;;
63346;SDS011;49472;49.880;8.650;2023-02-18T03:59:53;17.00;;;14.53;;
63346;SDS011;49472;49.880;8.650;2023-02-18T04:02:18;15.93;;;14.43;;
63346;SDS011;49472;49.880;8.650;2023-02-18T04:04:44;17.80;;;14.03;;
63346;SDS011;49472;49.880;8.650;2023-02-18T04:07:09;16.83;;;13.70;;
63346;SDS011;49472;49.880;8.650;2023-02-18T04:09:34;16.43;;;14.90;;
63346;SDS011;49472;49.880;8.650;2023-02-18T04:11:59;15.30;;;13.80;;
63346;SDS011;49472;49.880;8.650;2023-02-18T04:14:25;15.13;;;13.63;;
63346;SDS011;49472;49.880;8.650;2023-02-18T04:16:50;14.63;;;13.37;;
63346;SDS011;49472;49.880;8.650;2023-02-18T04:19:15;14.23;;;13.03;;
63346;SDS011;49472;49.880;8.650;2023-02-18T04:21:40;12.90;;;11.80;;
63346;SDS011;49472;49.880;8.650;2023-02-18T04:24:06;13.23;;;12.13;;
63346;SDS011;49472;49.880;8.650;2023-02-18T04:26:31;12.40;;;11.07;;
63346;SDS011;49472;49.880;8.650;2023-02-18T04:28:57;11.70;;;10.90;;
63346;SDS011;49472;49.880;8.650;2023-02-18T04:31:22;11.13;;;10.37;;
63346;SDS011;49472;49.880;8.650;2023-02-18T04:33:47;11.90;;;10.90;;
63346;SDS011;49472;49.880;8.650;2023-02-18T04:36:13;12.73;;;11.70;;
63346;SDS011;49472;49.880;8.650;2023-02-18T04:38:38;12.90;;;11.70;;
63346;SDS011;49472;49.880;8.650;2023-02-18T04:41:03;14.63;;;13.40;;
63346;SDS011;49472;49.880;8.650;2023-02-18T04:43:28;14.97;;;13.67;;
63346;SDS011;49472;49.880;8.650;2023-02-18T04:45:54;15.30;;;13.87;;
63346;SDS011;49472;49.880;8.650;2023-02-18T04:48:19;16.20;;;14.60;;
63346;SDS011;49472;49.880;8.650;2023-02-18T04:50:44;15.60;;;14.17;;
63346;SDS011;49472;49.880;8.650;2023-02-18T04:53:10;16.13;;;14.63;;
63346;SDS011;49472;49.880;8.650;2023-02-18T04:55:35;16.20;;;14.70;;
63346;SDS011;49472;49.880;8.650;2023-02-18T04:58:00;17.53;;;15.87;;
63346;SDS011;49472;49.880;8.650;2023-02-18T05:00:26;17.40;;;15.70;;
63346;SDS011;49472;49.880;8.650;2023-02-18T05:02:53;16.37;;;14.87;;
63346;SDS011;49472;49.880;8.650;2023-02-18T05:05:18;17.87;;;15.97;;
63346;SDS011;49472;49.880;8.650;2023-02-18T05:07:44;17.97;;;16.10;;
63346;SDS011;49472;49.880;8.650;2023-02-18T05:10:10;18.07;;;16.07;;
63346;SDS011;49472;49.880;8.650;2023-02-18T05:12:39;16.90;;;15.27;;
63346;SDS011;49472;49.880;8.650;2023-02-18T05:15:04;19.00;;;17.10;;
63346;SDS011;49472;49.880;8.650;2023-02-18T05:17:30;18.00;;;16.20;;
63346;SDS011;49472;49.880;8.650;2023-02-18T05:19:56;19.17;;;17.30;;
63346;SDS011;49472;49.880;8.650;2023-02-18T05:22:21;19.63;;;17.67;;
63346;SDS011;49472;49.880;8.650;2023-02-18T05:24:46;17.77;;;15.87;;
63346;SDS011;49472;49.880;8.650;2023-02-18T05:27:11;17.83;;;16.33;;
63346;SDS011;49472;49.880;8.650;2023-02-18T05:29:37;17.93;;;15.80;;
63346;SDS011;49472;49.880;8.650;2023-02-18T05:32:02;17.80;;;16.20;;
63346;SDS011;49472;49.880;8.650;2023-02-18T05:34:27;17.07;;;15.30;;
63346;SDS011;49472;49.880;8.650;2023-02-18T05:36:53;18.93;;;15.63;;
63346;SDS011;49472;49.880;8.650;2023-02-18T05:39:18;15.77;;;14.47;;
63346;SDS011;49472;49.880;8.650;2023-02-18T05:41:43;16.97;;;15.57;;
63346;SDS011;49472;49.880;8.650;2023-02-18T05:44:08;17.20;;;15.80;;
63346;SDS011;49472;49.880;8.650;2023-02-18T05:46:52;16.17;;;14.87;;
63346;SDS011;49472;49.880;8.650;2023-02-18T05:49:17;16.30;;;15.00;;
63346;SDS011;49472;49.880;8.650;2023-02-18T05:51:43;16.60;;;15.10;;
63346;SDS011;49472;49.880;8.650;2023-02-18T05:54:08;16.33;;;15.13;;
63346;SDS011;49472;49.880;8.650;2023-02-18T05:56:33;17.00;;;15.70;;
63346;SDS011;49472;49.880;8.650;2023-02-18T05:58:58;16.43;;;14.83;;
63346;SDS011;49472;49.880;8.650;2023-02-18T06:01:24;17.00;;;15.70;;
63346;SDS011;49472;49.880;8.650;2023-02-18T06:03:49;15.40;;;14.30;;
63346;SDS011;49472;49.880;8.650;2023-02-18T06:06:15;16.83;;;15.60;;
63346;SDS011;49472;49.880;8.650;2023-02-18T06:08:40;15.63;;;14.53;;
63346;SDS011;49472;49.880;8.650;2023-02-18T06:11:05;15.80;;;14.80;;
63346;SDS011;49472;49.880;8.650;2023-02-18T06:13:31;16.10;;;14.80;;
63346;SDS011;49472;49.880;8.650;2023-02-18T06:15:56;17.60;;;16.13;;
63346;SDS011;49472;49.880;8.650;2023-02-18T06:18:21;17.20;;;15.90;;
63346;SDS011;49472;49.880;8.650;2023-02-18T06:20:47;17.03;;;15.70;;
63346;SDS011;49472;49.880;8.650;2023-02-18T06:23:13;16.03;;;15.00;;
63346;SDS011;49472;49.880;8.650;2023-02-18T06:25:39;17.40;;;15.90;;
63346;SDS011;49472;49.880;8.650;2023-02-18T06:28:05;16.73;;;15.40;;
63346;SDS011;49472;49.880;8.650;2023-02-18T06:30:30;18.40;;;16.57;;
63346;SDS011;49472;49.880;8.650;2023-02-18T06:32:55;17.73;;;16.33;;
63346;SDS011;49472;49.880;8.650;2023-02-18T06:35:21;18.07;;;16.27;;
63346;SDS011;49472;49.880;8.650;2023-02-18T06:37:46;17.80;;;16.60;;
63346;SDS011;49472;49.880;8.650;2023-02-18T06:40:11;17.00;;;15.80;;
63346;SDS011;49472;49.880;8.650;2023-02-18T06:42:37;17.83;;;16.53;;
63346;SDS011;49472;49.880;8.650;2023-02-18T06:45:02;17.43;;;16.13;;
63346;SDS011;49472;49.880;8.650;2023-02-18T06:47:30;17.40;;;15.90;;
63346;SDS011;49472;49.880;8.650;2023-02-18T06:49:55;17.73;;;16.20;;
63346;SDS011;49472;49.880;8.650;2023-02-18T06:52:21;17.47;;;16.10;;
63346;SDS011;49472;49.880;8.650;2023-02-18T06:54:46;18.13;;;16.63;;
63346;SDS011;49472;49.880;8.650;2023-02-18T06:57:11;17.47;;;16.10;;
63346;SDS011;49472;49.880;8.650;2023-02-18T06:59:36;17.43;;;16.13;;
63346;SDS011;49472;49.880;8.650;2023-02-18T07:02:02;17.57;;;16.27;;
63346;SDS011;49472;49.880;8.650;2023-02-18T07:04:27;18.43;;;17.10;;
63346;SDS011;49472;49.880;8.650;2023-02-18T07:06:52;19.30;;;16.57;;
63346;SDS011;49472;49.880;8.650;2023-02-18T07:09:18;18.30;;;16.80;;
63346;SDS011;49472;49.880;8.650;2023-02-18T07:11:43;17.93;;;16.50;;
63346;SDS011;49472;49.880;8.650;2023-02-18T07:14:08;18.43;;;16.93;;
63346;SDS011;49472;49.880;8.650;2023-02-18T07:16:33;18.13;;;16.83;;
63346;SDS011;49472;49.880;8.650;2023-02-18T07:18:59;18.50;;;16.83;;
63346;SDS011;49472;49.880;8.650;2023-02-18T07:21:24;17.97;;;16.57;;
63346;SDS011;49472;49.880;8.650;2023-02-18T07:23:49;17.43;;;16.03;;
63346;SDS011;49472;49.880;8.650;2023-02-18T07:26:15;16.87;;;15.70;;
63346;SDS011;49472;49.880;8.650;2023-02-18T07:28:40;18.30;;;16.83;;
63346;SDS011;49472;49.880;8.650;2023-02-18T07:31:06;17.90;;;16.63;;
63346;SDS011;49472;49.880;8.650;2023-02-18T07:33:32;17.57;;;16.13;;
63346;SDS011;49472;49.880;8.650;2023-02-18T07:35:57;18.60;;;17.20;;
63346;SDS011;49472;49.880;8.650;2023-02-18T07:38:24;19.07;;;17.70;;
63346;SDS011;49472;49.880;8.650;2023-02-18T07:40:51;18.67;;;17.03;;
63346;SDS011;49472;49.880;8.650;2023-02-18T07:43:17;19.10;;;17.50;;
63346;SDS011;49472;49.880;8.650;2023-02-18T07:45:43;18.90;;;17.23;;
63346;SDS011;49472;49.880;8.650;2023-02-18T07:48:08;19.57;;;17.83;;
63346;SDS011;49472;49.880;8.650;2023-02-18T07:50:34;21.70;;;19.10;;
63346;SDS011;49472;49.880;8.650;2023-02-18T07:53:02;23.53;;;17.27;;
63346;SDS011;49472;49.880;8.650;2023-02-18T07:55:28;18.40;;;16.90;;
63346;SDS011;49472;49.880;8.650;2023-02-18T07:58:13;18.30;;;16.90;;
63346;SDS011;49472;49.880;8.650;2023-02-18T08:00:45;19.13;;;17.53;;
63346;SDS011;49472;49.880;8.650;2023-02-18T08:03:17;18.80;;;17.30;;
63346;SDS011;49472;49.880;8.650;2023-02-18T08:05:43;19.43;;;17.70;;
63346;SDS011;49472;49.880;8.650;2023-02-18T08:08:12;17.97;;;16.47;;
63346;SDS011;49472;49.880;8.650;2023-02-18T08:10:39;18.03;;;16.53;;
63346;SDS011;49472;49.880;8.650;2023-02-18T08:13:05;18.80;;;17.30;;
63346;SDS011;49472;49.880;8.650;2023-02-18T08:15:30;19.33;;;17.83;;
63346;SDS011;49472;49.880;8.650;2023-02-18T08:17:55;18.20;;;16.80;;
63346;SDS011;49472;49.880;8.650;2023-02-18T08:20:21;19.27;;;17.47;;
63346;SDS011;49472;49.880;8.650;2023-02-18T08:22:46;18.60;;;17.03;;
63346;SDS011;49472;49.880;8.650;2023-02-18T08:25:11;17.87;;;16.43;;
63346;SDS011;49472;49.880;8.650;2023-02-18T08:27:37;19.53;;;17.70;;
63346;SDS011;49472;49.880;8.650;2023-02-18T08:30:02;18.47;;;17.00;;
63346;SDS011;49472;49.880;8.650;2023-02-18T08:32:28;18.40;;;16.93;;
63346;SDS011;49472;49.880;8.650;2023-02-18T08:34:53;18.33;;;16.77;;
63346;SDS011;49472;49.880;8.650;2023-02-18T08:37:19;16.90;;;15.70;;
63346;SDS011;49472;49.880;8.650;2023-02-18T08:39:44;16.93;;;15.73;;
63346;SDS011;49472;49.880;8.650;2023-02-18T08:42:09;17.40;;;16.13;;
63346;SDS011;49472;49.880;8.650;2023-02-18T08:44:35;16.10;;;15.00;;
63346;SDS011;49472;49.880;8.650;2023-02-18T08:47:00;16.50;;;15.33;;
63346;SDS011;49472;49.880;8.650;2023-02-18T08:49:25;16.23;;;15.00;;
63346;SDS011;49472;49.880;8.650;2023-02-18T08:51:51;16.20;;;15.10;;
63346;SDS011;49472;49.880;8.650;2023-02-18T08:54:17;18.73;;;16.40;;
63346;SDS011;49472;49.880;8.650;2023-02-18T08:56:42;15.17;;;14.07;;
63346;SDS011;49472;49.880;8.650;2023-02-18T08:59:08;16.83;;;15.63;;
63346;SDS011;49472;49.880;8.650;2023-02-18T09:01:33;15.07;;;13.97;;
63346;SDS011;49472;49.880;8.650;2023-02-18T09:03:59;15.07;;;13.97;;
63346;SDS011;49472;49.880;8.650;2023-02-18T09:06:24;15.23;;;14.07;;
63346;SDS011;49472;49.880;8.650;2023-02-18T09:08:49;14.07;;;13.20;;
63346;SDS011;49472;49.880;8.650;2023-02-18T09:11:15;14.83;;;13.83;;
63346;SDS011;49472;49.880;8.650;2023-02-18T09:13:40;15.20;;;13.97;;
63346;SDS011;49472;49.880;8.650;2023-02-18T09:16:07;13.77;;;12.90;;
63346;SDS011;49472;49.880;8.650;2023-02-18T09:18:34;13.03;;;12.30;;
63346;SDS011;49472;49.880;8.650;2023-02-18T09:21:00;14.93;;;13.40;;
63346;SDS011;49472;49.880;8.650;2023-02-18T09:23:26;14.53;;;13.53;;
63346;SDS011;49472;49.880;8.650;2023-02-18T09:25:53;13.90;;;13.00;;
63346;SDS011;49472;49.880;8.650;2023-02-18T09:28:18;14.77;;;13.77;;
63346;SDS011;49472;49.880;8.650;2023-02-18T09:30:44;14.27;;;13.27;;
63346;SDS011;49472;49.880;8.650;2023-02-18T09:33:09;16.20;;;14.90;;
63346;SDS011;49472;49.880;8.650;2023-02-18T09:35:39;14.50;;;13.50;;
63346;SDS011;49472;49.880;8.650;2023-02-18T09:38:09;15.90;;;14.80;;
63346;SDS011;49472;49.880;8.650;2023-02-18T09:40:36;16.03;;;14.93;;
63346;SDS011;49472;49.880;8.650;2023-02-18T09:43:06;15.53;;;14.03;;
63346;SDS011;49472;49.880;8.650;2023-02-18T09:45:43;15.80;;;14.30;;
63346;SDS011;49472;49.880;8.650;2023-02-18T09:48:08;15.50;;;14.30;;
63346;SDS011;49472;49.880;8.650;2023-02-18T09:50:34;15.07;;;14.03;;
63346;SDS011;49472;49.880;8.650;2023-02-18T09:53:00;14.97;;;14.00;;
63346;SDS011;49472;49.880;8.650;2023-02-18T09:57:57;14.73;;;13.73;;
63346;SDS011;49472;49.880;8.650;2023-02-18T10:00:31;15.87;;;14.57;;
63346;SDS011;49472;49.880;8.650;2023-02-18T10:03:02;14.93;;;13.90;;
63346;SDS011;49472;49.880;8.650;2023-02-18T10:05:30;14.87;;;13.57;;
63346;SDS011;49472;49.880;8.650;2023-02-18T10:07:58;14.93;;;14.00;;
63346;SDS011;49472;49.880;8.650;2023-02-18T10:10:39;15.70;;;14.50;;
63346;SDS011;49472;49.880;8.650;2023-02-18T10:13:14;16.50;;;14.80;;
63346;SDS011;49472;49.880;8.650;2023-02-18T10:15:43;15.43;;;14.33;;
63346;SDS011;49472;49.880;8.650;2023-02-18T10:18:14;14.93;;;13.70;;
63346;SDS011;49472;49.880;8.650;2023-02-18T10:20:47;15.10;;;13.63;;
63346;SDS011;49472;49.880;8.650;2023-02-18T10:23:16;15.37;;;14.23;;
63346;SDS011;49472;49.880;8.650;2023-02-18T10:25:45;14.70;;;13.60;;
63346;SDS011;49472;49.880;8.650;2023-02-18T10:28:12;14.57;;;13.57;;
63346;SDS011;49472;49.880;8.650;2023-02-18T10:30:42;13.53;;;12.53;;
63346;SDS011;49472;49.880;8.650;2023-02-18T10:38:44;13.97;;;13.17;;
63346;SDS011;49472;49.880;8.650;2023-02-18T10:41:30;13.93;;;13.00;;
63346;SDS011;49472;49.880;8.650;2023-02-18T10:46:44;13.30;;;12.30;;
63346;SDS011;49472;49.880;8.650;2023-02-18T10:52:46;12.37;;;11.77;;
63346;SDS011;49472;49.880;8.650;2023-02-18T10:55:15;13.50;;;12.70;;
63346;SDS011;49472;49.880;8.650;2023-02-18T10:57:49;12.87;;;12.10;;
63346;SDS011;49472;49.880;8.650;2023-02-18T11:00:24;12.80;;;12.00;;
63346;SDS011;49472;49.880;8.650;2023-02-18T11:06:14;13.27;;;12.47;;
63346;SDS011;49472;49.880;8.650;2023-02-18T11:08:59;12.93;;;12.23;;
63346;SDS011;49472;49.880;8.650;2023-02-18T11:11:28;12.13;;;11.30;;
63346;SDS011;49472;49.880;8.650;2023-02-18T11:13:58;12.10;;;11.50;;
63346;SDS011;49472;49.880;8.650;2023-02-18T11:16:41;12.60;;;11.93;;
63346;SDS011;49472;49.880;8.650;2023-02-18T11:19:29;13.17;;;12.27;;
63346;SDS011;49472;49.880;8.650;2023-02-18T11:22:17;12.83;;;12.00;;
63346;SDS011;49472;49.880;8.650;2023-02-18T11:24:44;12.80;;;11.90;;
63346;SDS011;49472;49.880;8.650;2023-02-18T11:27:16;12.47;;;11.67;;
63346;SDS011;49472;49.880;8.650;2023-02-18T11:29:53;13.17;;;11.97;;
63346;SDS011;49472;49.880;8.650;2023-02-18T11:32:25;13.03;;;12.20;;
63346;SDS011;49472;49.880;8.650;2023-02-18T11:34:52;13.03;;;12.20;;
63346;SDS011;49472;49.880;8.650;2023-02-18T11:37:18;13.27;;;12.37;;
63346;SDS011;49472;49.880;8.650;2023-02-18T11:39:45;13.37;;;12.47;;
63346;SDS011;49472;49.880;8.650;2023-02-18T11:42:14;12.90;;;12.20;;
63346;SDS011;49472;49.880;8.650;2023-02-18T11:44:52;12.50;;;11.63;;
63346;SDS011;49472;49.880;8.650;2023-02-18T11:47:20;13.17;;;12.37;;
63346;SDS011;49472;49.880;8.650;2023-02-18T11:52:49;12.47;;;11.67;;
63346;SDS011;49472;49.880;8.650;2023-02-18T11:55:22;13.30;;;12.40;;
63346;SDS011;49472;49.880;8.650;2023-02-18T12:00:39;13.07;;;11.97;;
63346;SDS011;49472;49.880;8.650;2023-02-18T12:03:11;13.33;;;12.33;;
63346;SDS011;49472;49.880;8.650;2023-02-18T12:05:43;12.37;;;11.60;;
63346;SDS011;49472;49.880;8.650;2023-02-18T12:08:12;12.80;;;12.10;;
63346;SDS011;49472;49.880;8.650;2023-02-18T12:10:46;12.90;;;11.90;;
63346;SDS011;49472;49.880;8.650;2023-02-18T12:13:34;14.87;;;13.60;;
63346;SDS011;49472;49.880;8.650;2023-02-18T12:21:50;12.60;;;11.70;;
63346;SDS011;49472;49.880;8.650;2023-02-18T12:24:37;12.07;;;11.40;;
63346;SDS011;49472;49.880;8.650;2023-02-18T12:35:03;12.93;;;12.13;;
63346;SDS011;49472;49.880;8.650;2023-02-18T12:37:56;13.33;;;12.63;;
63346;SDS011;49472;49.880;8.650;2023-02-18T12:54:17;12.90;;;12.10;;
63346;SDS011;49472;49.880;8.650;2023-02-18T13:08:17;12.87;;;11.77;;
63346;SDS011;49472;49.880;8.650;2023-02-18T13:11:00;12.93;;;12.03;;
63346;SDS011;49472;49.880;8.650;2023-02-18T13:13:58;12.33;;;11.47;;
63346;SDS011;49472;49.880;8.650;2023-02-18T13:16:40;12.93;;;11.90;;
63346;SDS011;49472;49.880;8.650;2023-02-18T13:21:53;12.50;;;11.70;;
63346;SDS011;49472;49.880;8.650;2023-02-18T13:24:27;12.73;;;11.97;;
63346;SDS011;49472;49.880;8.650;2023-02-18T13:27:00;12.63;;;11.73;;
63346;SDS011;49472;49.880;8.650;2023-02-18T13:30:08;13.50;;;12.40;;
63346;SDS011;49472;49.880;8.650;2023-02-18T13:35:38;13.60;;;12.70;;
63346;SDS011;49472;49.880;8.650;2023-02-18T13:38:16;12.90;;;12.20;;
63346;SDS011;49472;49.880;8.650;2023-02-18T13:41:20;13.00;;;12.27;;
63346;SDS011;49472;49.880;8.650;2023-02-18T13:43:46;12.20;;;11.50;;
63346;SDS011;49472;49.880;8.650;2023-02-18T13:46:47;13.30;;;12.17;;
63346;SDS011;49472;49.880;8.650;2023-02-18T13:49:13;14.00;;;13.07;;
63346;SDS011;49472;49.880;8.650;2023-02-18T13:51:45;13.13;;;12.43;;
63346;SDS011;49472;49.880;8.650;2023-02-18T13:56:52;12.77;;;12.07;;
63346;SDS011;49472;49.880;8.650;2023-02-18T14:01:52;12.90;;;12.20;;
63346;SDS011;49472;49.880;8.650;2023-02-18T14:04:33;12.90;;;12.10;;
63346;SDS011;49472;49.880;8.650;2023-02-18T14:10:00;13.60;;;12.80;;
63346;SDS011;49472;49.880;8.650;2023-02-18T14:17:42;13.60;;;12.60;;
63346;SDS011;49472;49.880;8.650;2023-02-18T14:22:46;13.37;;;12.43;;
63346;SDS011;49472;49.880;8.650;2023-02-18T14:27:50;13.10;;;12.30;;
63346;SDS011;49472;49.880;8.650;2023-02-18T14:32:43;13.43;;;12.50;;
63346;SDS011;49472;49.880;8.650;2023-02-18T14:43:03;14.57;;;13.10;;
63346;SDS011;49472;49.880;8.650;2023-02-18T14:50:43;13.97;;;13.07;;
63346;SDS011;49472;49.880;8.650;2023-02-18T14:53:12;13.53;;;12.60;;
63346;SDS011;49472;49.880;8.650;2023-02-18T14:55:45;12.87;;;12.07;;
63346;SDS011;49472;49.880;8.650;2023-02-18T14:58:23;12.87;;;11.93;;
63346;SDS011;49472;49.880;8.650;2023-02-18T15:00:53;12.40;;;11.70;;
63346;SDS011;49472;49.880;8.650;2023-02-18T15:03:20;14.00;;;13.03;;
63346;SDS011;49472;49.880;8.650;2023-02-18T15:05:47;14.00;;;12.80;;
63346;SDS011;49472;49.880;8.650;2023-02-18T15:11:06;12.83;;;12.13;;
63346;SDS011;49472;49.880;8.650;2023-02-18T15:13:36;13.07;;;12.07;;
63346;SDS011;49472;49.880;8.650;2023-02-18T15:16:08;12.93;;;11.83;;
63346;SDS011;49472;49.880;8.650;2023-02-18T15:18:40;12.03;;;11.33;;
63346;SDS011;49472;49.880;8.650;2023-02-18T15:21:14;13.17;;;11.67;;
63346;SDS011;49472;49.880;8.650;2023-02-18T15:26:49;14.23;;;11.77;;
63346;SDS011;49472;49.880;8.650;2023-02-18T15:29:20;13.20;;;12.20;;
63346;SDS011;49472;49.880;8.650;2023-02-18T15:31:47;13.00;;;12.23;;
63346;SDS011;49472;49.880;8.650;2023-02-18T15:34:36;13.40;;;12.33;;
63346;SDS011;49472;49.880;8.650;2023-02-18T15:37:04;13.20;;;12.50;;
63346;SDS011;49472;49.880;8.650;2023-02-18T15:39:31;12.70;;;11.80;;
63346;SDS011;49472;49.880;8.650;2023-02-18T15:42:00;13.27;;;12.47;;
63346;SDS011;49472;49.880;8.650;2023-02-18T15:44:31;12.80;;;12.00;;
63346;SDS011;49472;49.880;8.650;2023-02-18T15:47:00;12.73;;;11.73;;
63346;SDS011;49472;49.880;8.650;2023-02-18T15:49:27;12.97;;;12.13;;
63346;SDS011;49472;49.880;8.650;2023-02-18T15:51:55;12.67;;;11.77;;
63346;SDS011;49472;49.880;8.650;2023-02-18T15:54:24;12.70;;;12.00;;
63346;SDS011;49472;49.880;8.650;2023-02-18T15:56:51;12.40;;;11.60;;
63346;SDS011;49472;49.880;8.650;2023-02-18T16:01:55;13.57;;;12.70;;
63346;SDS011;49472;49.880;8.650;2023-02-18T16:04:28;12.50;;;11.70;;
63346;SDS011;49472;49.880;8.650;2023-02-18T16:06:57;13.07;;;12.00;;
63346;SDS011;49472;49.880;8.650;2023-02-18T16:09:32;13.10;;;11.60;;
63346;SDS011;49472;49.880;8.650;2023-02-18T16:12:01;11.90;;;11.30;;
63346;SDS011;49472;49.880;8.650;2023-02-18T16:14:33;12.17;;;11.43;;
63346;SDS011;49472;49.880;8.650;2023-02-18T16:17:14;12.27;;;11.27;;
63346;SDS011;49472;49.880;8.650;2023-02-18T16:25:01;12.27;;;11.57;;
63346;SDS011;49472;49.880;8.650;2023-02-18T16:28:02;12.93;;;12.03;;
63346;SDS011;49472;49.880;8.650;2023-02-18T16:30:31;13.27;;;12.17;;
63346;SDS011;49472;49.880;8.650;2023-02-18T16:32:58;13.83;;;13.03;;
63346;SDS011;49472;49.880;8.650;2023-02-18T16:35:25;13.00;;;12.10;;
63346;SDS011;49472;49.880;8.650;2023-02-18T16:37:53;12.80;;;12.00;;
63346;SDS011;49472;49.880;8.650;2023-02-18T16:42:55;12.40;;;11.50;;
63346;SDS011;49472;49.880;8.650;2023-02-18T16:45:31;12.67;;;11.97;;
63346;SDS011;49472;49.880;8.650;2023-02-18T16:47:58;13.83;;;12.90;;
63346;SDS011;49472;49.880;8.650;2023-02-18T16:50:24;13.17;;;12.33;;
63346;SDS011;49472;49.880;8.650;2023-02-18T16:52:55;13.03;;;12.10;;
63346;SDS011;49472;49.880;8.650;2023-02-18T16:55:22;11.80;;;11.10;;
63346;SDS011;49472;49.880;8.650;2023-02-18T16:57:50;13.73;;;12.50;;
63346;SDS011;49472;49.880;8.650;2023-02-18T17:00:16;13.40;;;12.33;;
63346;SDS011;49472;49.880;8.650;2023-02-18T17:02:43;13.10;;;12.00;;